createdAt,value
2023-08-20T00:02:28.321Z,99964.58
2023-08-20T00:04:58.282Z,99963.77
2023-08-20T00:07:28.956Z,99966.31
2023-08-20T00:09:59.244Z,99959.42
2023-08-20T00:12:29.353Z,99962.44
2023-08-20T00:15:05.906Z,99961.54
2023-08-20T00:17:37.789Z,99961.35
2023-08-20T00:20:16.475Z,99964.05
2023-08-20T00:22:47.758Z,99964.09
2023-08-20T00:25:18.736Z,99962.17
2023-08-20T00:27:48.765Z,99959.63
2023-08-20T00:30:18.834Z,99956.95
2023-08-20T00:43:22.111Z,99945.55
2023-08-20T00:45:53.052Z,99944.36
2023-08-20T00:48:23.013Z,99942.44
2023-08-20T00:50:52.879Z,99947.33
2023-08-20T00:53:22.771Z,99951.95
2023-08-20T00:55:52.655Z,99948.99
2023-08-20T00:58:22.652Z,99949.96
2023-08-20T01:00:52.811Z,99951.41
2023-08-20T01:03:22.810Z,99952.66
2023-08-20T01:05:54.927Z,99954.02
2023-08-20T01:08:30.304Z,99949.05
2023-08-20T01:11:03.147Z,99949.39
2023-08-20T01:13:33.286Z,99949.70
2023-08-20T01:16:03.378Z,99947.34
2023-08-20T01:18:33.575Z,99944.36
2023-08-20T01:21:04.085Z,99940.30
2023-08-20T01:23:54.442Z,99940.96
2023-08-20T01:26:53.088Z,99937.77
2023-08-20T01:29:22.991Z,99936.02
2023-08-20T01:31:52.998Z,99939.05
2023-08-20T01:34:23.253Z,99933.42
2023-08-20T01:36:54.813Z,99934.01
2023-08-20T01:39:24.825Z,99934.23
2023-08-20T01:41:54.824Z,99932.65
2023-08-20T01:44:24.893Z,99927.95
2023-08-20T01:46:55.124Z,99935.21
2023-08-20T01:49:25.066Z,99939.64
2023-08-20T01:51:55.070Z,99942.30
2023-08-20T01:54:24.993Z,99940.73
2023-08-20T01:56:55.012Z,99936.30
2023-08-20T01:59:26.116Z,99934.79
2023-08-20T02:01:56.151Z,99930.52
2023-08-20T02:04:26.310Z,99931.56
2023-08-20T02:06:56.504Z,99936.02
2023-08-20T02:09:26.576Z,99938.89
2023-08-20T02:11:56.710Z,99932.98
2023-08-20T02:14:28.306Z,99937.38
2023-08-20T02:16:58.433Z,99945.05
2023-08-20T02:19:28.612Z,99942.64
2023-08-20T02:21:58.734Z,99942.38
2023-08-20T02:24:29.890Z,99941.83
2023-08-20T02:27:00.015Z,99939.81
2023-08-20T02:29:30.039Z,99943.27
2023-08-20T02:32:00.120Z,99942.58
2023-08-20T02:34:30.247Z,99940.66
2023-08-20T02:37:00.323Z,99938.16
2023-08-20T02:39:30.151Z,99940.48
2023-08-20T02:42:00.508Z,99944.73
2023-08-20T02:44:30.684Z,99938.97
2023-08-20T02:47:00.633Z,99939.24
2023-08-20T02:49:30.720Z,99942.30
2023-08-20T02:52:00.864Z,99945.68
2023-08-20T02:54:33.307Z,99946.77
2023-08-20T02:57:03.815Z,99942.14
2023-08-20T02:59:33.929Z,99942.71
2023-08-20T03:02:04.773Z,99940.02
2023-08-20T03:04:36.106Z,99944.88
2023-08-20T03:07:06.391Z,99950.48
2023-08-20T03:09:36.315Z,99944.84
2023-08-20T03:12:07.598Z,99945.21
2023-08-20T03:14:37.585Z,99940.86
2023-08-20T03:17:07.604Z,99939.52
2023-08-20T03:19:37.785Z,99938.55
2023-08-20T03:22:07.677Z,99937.16
2023-08-20T03:24:37.759Z,99932.62
2023-08-20T03:27:07.835Z,99933.42
2023-08-20T03:29:38.002Z,99935.61
2023-08-20T03:32:08.309Z,99935.73
2023-08-20T03:34:38.313Z,99936.19
2023-08-20T03:37:08.350Z,99936.77
2023-08-20T03:39:38.603Z,99939.16
2023-08-20T03:42:08.823Z,99944.41
2023-08-20T03:44:41.708Z,99948.71
2023-08-20T03:47:11.849Z,99939.06
2023-08-20T03:49:42.083Z,99940.41
2023-08-20T03:52:12.335Z,99941.54
2023-08-20T03:54:42.336Z,99944.52
2023-08-20T03:57:12.542Z,99943.29
2023-08-20T03:59:42.527Z,99943.42
2023-08-20T04:02:12.386Z,99941.38
2023-08-20T04:04:43.432Z,99934.80
2023-08-20T04:07:13.390Z,99932.56
2023-08-20T04:09:43.815Z,99929.71
2023-08-20T04:12:15.524Z,99934.09
2023-08-20T04:14:45.490Z,99930.59
2023-08-20T04:17:15.533Z,99930.19
2023-08-20T04:19:46.022Z,99927.63
2023-08-20T04:22:16.058Z,99927.95
2023-08-20T04:24:45.907Z,99928.23
2023-08-20T04:27:15.906Z,99926.69
2023-08-20T04:29:45.953Z,99924.53
2023-08-20T04:32:15.973Z,99925.21
2023-08-20T04:34:47.384Z,99926.64
2023-08-20T04:37:17.805Z,99920.66
2023-08-20T04:39:49.981Z,99917.55
2023-08-20T04:42:20.134Z,99919.00
2023-08-20T04:44:50.129Z,99915.59
2023-08-20T04:47:21.158Z,99914.18
2023-08-20T04:49:51.344Z,99920.41
2023-08-20T04:52:21.695Z,99922.24
2023-08-20T04:54:51.939Z,99929.02
2023-08-20T04:57:22.483Z,99926.36
2023-08-20T04:59:52.972Z,99928.20
2023-08-20T05:02:36.197Z,99930.22
2023-08-20T05:05:11.099Z,99930.59
2023-08-20T05:07:44.773Z,99930.95
2023-08-20T05:10:14.821Z,99933.60
2023-08-20T05:12:45.060Z,99927.90
2023-08-20T05:15:15.743Z,99924.77
2023-08-20T05:17:45.989Z,99924.49
2023-08-20T05:20:16.712Z,99923.80
2023-08-20T05:22:47.704Z,99922.48
2023-08-20T05:25:18.040Z,99917.37
2023-08-20T05:27:48.411Z,99919.21
2023-08-20T05:30:19.015Z,99919.59
2023-08-20T05:32:49.035Z,99917.34
2023-08-20T05:35:19.282Z,99917.37
2023-08-20T05:37:49.625Z,99914.48
2023-08-20T05:40:19.924Z,99914.38
2023-08-20T05:42:52.342Z,99916.67
2023-08-20T05:45:22.642Z,99920.89
2023-08-20T05:47:52.889Z,99919.02
2023-08-20T05:50:22.979Z,99917.25
2023-08-20T05:52:53.634Z,99913.83
2023-08-20T05:55:25.073Z,99917.61
2023-08-20T05:57:55.856Z,99917.66
2023-08-20T06:00:25.934Z,99915.52
2023-08-20T06:02:56.191Z,99910.35
2023-08-20T06:05:26.180Z,99908.99
2023-08-20T06:07:56.754Z,99909.10
2023-08-20T06:10:27.579Z,99909.95
2023-08-20T06:12:58.257Z,99903.17
2023-08-20T06:15:28.323Z,99905.55
2023-08-20T06:17:58.365Z,99903.21
2023-08-20T06:20:28.468Z,99906.29
2023-08-20T06:22:58.460Z,99908.96
2023-08-20T06:25:28.455Z,99909.70
2023-08-20T06:27:58.519Z,99905.80
2023-08-20T06:30:29.003Z,99905.75
2023-08-20T06:32:58.976Z,99901.77
2023-08-20T06:35:29.015Z,99905.14
2023-08-20T06:37:59.475Z,99906.24
2023-08-20T06:40:29.771Z,99909.09
2023-08-20T06:42:59.988Z,99909.13
2023-08-20T06:45:30.533Z,99908.80
2023-08-20T06:48:00.494Z,99911.08
2023-08-20T06:50:30.726Z,99910.12
2023-08-20T06:53:00.625Z,99907.52
2023-08-20T06:55:30.661Z,99905.72
2023-08-20T06:58:01.018Z,99907.44
2023-08-20T07:00:31.118Z,99904.94
2023-08-20T07:03:01.146Z,99902.54
2023-08-20T07:05:31.339Z,99906.13
2023-08-20T07:08:01.435Z,99905.86
2023-08-20T07:10:31.528Z,99907.45
2023-08-20T07:13:01.475Z,99907.79
2023-08-20T07:15:31.986Z,99901.83
2023-08-20T07:18:02.130Z,99902.16
2023-08-20T07:20:32.181Z,99903.33
2023-08-20T07:23:03.229Z,99904.50
2023-08-20T07:25:35.093Z,99902.80
2023-08-20T07:28:06.436Z,99899.73
2023-08-20T07:30:36.715Z,99896.89
2023-08-20T07:33:07.351Z,99896.86
2023-08-20T07:35:37.292Z,99896.76
2023-08-20T07:38:07.285Z,99889.36
2023-08-20T07:40:37.296Z,99892.05
2023-08-20T07:43:07.839Z,99895.42
2023-08-20T07:45:38.387Z,99892.80
2023-08-20T07:48:09.176Z,99893.91
2023-08-20T07:50:39.516Z,99889.30
2023-08-20T07:53:11.948Z,99884.19
2023-08-20T07:55:41.920Z,99887.70
2023-08-20T07:58:12.064Z,99888.66
2023-08-20T08:00:42.029Z,99888.50
2023-08-20T08:03:12.077Z,99889.30
2023-08-20T08:05:42.197Z,99887.02
2023-08-20T08:08:12.218Z,99889.65
2023-08-20T08:10:42.265Z,99888.24
2023-08-20T08:13:12.477Z,99887.38
2023-08-20T08:15:42.514Z,99888.05
2023-08-20T08:18:12.501Z,99883.64
2023-08-20T08:20:42.571Z,99880.83
2023-08-20T08:23:12.622Z,99882.17
2023-08-20T08:25:42.702Z,99879.77
2023-08-20T08:28:12.645Z,99881.05
2023-08-20T08:30:43.140Z,99881.95
2023-08-20T08:33:13.402Z,99878.14
2023-08-20T08:35:43.447Z,99877.61
2023-08-20T08:38:13.562Z,99879.34
2023-08-20T08:40:43.522Z,99876.89
2023-08-20T08:43:17.588Z,99878.70
2023-08-20T08:45:50.001Z,99872.11
2023-08-20T08:48:20.774Z,99868.73
2023-08-20T08:50:50.723Z,99870.20
2023-08-20T08:53:20.679Z,99873.98
2023-08-20T08:55:51.305Z,99873.23
2023-08-20T08:58:21.595Z,99873.75
2023-08-20T09:00:51.928Z,99868.65
2023-08-20T09:03:22.003Z,99864.31
2023-08-20T09:05:56.391Z,99866.31
2023-08-20T09:08:29.127Z,99864.74
2023-08-20T09:10:59.721Z,99863.92
2023-08-20T09:13:36.261Z,99863.58
2023-08-20T09:16:09.715Z,99864.22
2023-08-20T09:18:41.833Z,99864.17
2023-08-20T09:21:12.006Z,99862.77
2023-08-20T09:23:41.947Z,99855.68
2023-08-20T09:26:11.950Z,99860.72
2023-08-20T09:28:45.330Z,99856.61
2023-08-20T09:31:15.395Z,99858.95
2023-08-20T09:33:54.793Z,99855.10
2023-08-20T09:36:33.413Z,99851.90
2023-08-20T09:39:03.433Z,99850.74
2023-08-20T09:41:33.581Z,99849.48
2023-08-20T09:44:03.597Z,99852.42
2023-08-20T09:46:34.128Z,99852.25
2023-08-20T09:49:04.475Z,99849.00
2023-08-20T09:51:35.241Z,99844.80
2023-08-20T09:54:12.521Z,99846.83
2023-08-20T09:56:42.432Z,99841.25
2023-08-20T09:59:12.338Z,99844.52
2023-08-20T10:01:42.344Z,99850.07
2023-08-20T10:04:13.653Z,99848.68
2023-08-20T10:06:43.643Z,99847.69
2023-08-20T10:09:14.267Z,99845.89
2023-08-20T10:11:44.248Z,99839.27
2023-08-20T10:14:15.354Z,99840.80
2023-08-20T10:16:45.287Z,99838.85
2023-08-20T10:19:16.673Z,99840.05
2023-08-20T10:21:47.863Z,99839.27
2023-08-20T10:24:20.483Z,99838.90
2023-08-20T10:26:50.808Z,99836.83
2023-08-20T10:29:40.358Z,99832.41
2023-08-20T10:32:11.103Z,99825.92
2023-08-20T10:34:43.501Z,99824.04
2023-08-20T10:37:14.665Z,99818.30
2023-08-20T10:39:44.781Z,99816.02
2023-08-20T10:42:31.139Z,99816.73
2023-08-20T10:45:02.276Z,99811.60
2023-08-20T10:47:39.611Z,99812.95
2023-08-20T10:50:12.155Z,99805.59
2023-08-20T10:52:43.285Z,99807.38
2023-08-20T10:55:13.560Z,99799.62
2023-08-20T10:57:43.807Z,99797.09
2023-08-20T11:00:18.013Z,99791.22
2023-08-20T11:02:48.175Z,99787.96
2023-08-20T11:05:22.599Z,99790.14
2023-08-20T11:07:52.907Z,99789.16
2023-08-20T11:10:22.949Z,99783.58
2023-08-20T11:12:53.047Z,99786.27
2023-08-20T11:15:23.243Z,99784.37
2023-08-20T11:17:53.362Z,99783.92
2023-08-20T11:20:23.598Z,99784.38
2023-08-20T11:22:53.891Z,99777.32
2023-08-20T11:25:24.102Z,99778.92
2023-08-20T11:27:53.974Z,99778.56
2023-08-20T11:30:25.714Z,99774.79
2023-08-20T11:32:55.764Z,99770.16
2023-08-20T11:35:25.870Z,99764.75
2023-08-20T11:37:56.053Z,99763.51
2023-08-20T11:40:26.032Z,99756.48
2023-08-20T11:42:56.137Z,99755.52
2023-08-20T11:45:26.198Z,99750.36
2023-08-20T11:47:59.552Z,99748.23
2023-08-20T11:50:29.636Z,99746.75
2023-08-20T11:53:02.465Z,99743.02
2023-08-20T11:55:32.556Z,99738.14
2023-08-20T11:58:02.884Z,99733.70
2023-08-20T12:00:33.323Z,99730.03
2023-08-20T12:03:05.193Z,99731.59
2023-08-20T12:05:35.198Z,99726.70
2023-08-20T12:08:05.547Z,99723.36
2023-08-20T12:10:36.072Z,99715.46
2023-08-20T12:13:06.361Z,99712.44
2023-08-20T12:15:36.368Z,99709.68
2023-08-20T12:18:07.836Z,99709.44
2023-08-20T12:20:38.362Z,99707.55
2023-08-20T12:23:08.875Z,99707.23
2023-08-20T12:25:39.140Z,99708.04
2023-08-20T12:28:09.551Z,99704.22
2023-08-20T12:30:40.235Z,99703.29
2023-08-20T12:33:10.407Z,99701.89
2023-08-20T12:35:40.433Z,99697.41
2023-08-20T12:38:11.000Z,99694.19
2023-08-20T12:40:41.093Z,99697.96
2023-08-20T12:43:10.984Z,99691.34
2023-08-20T12:45:41.428Z,99688.41
2023-08-20T12:48:11.417Z,99687.71
2023-08-20T12:50:42.372Z,99690.52
2023-08-20T12:53:14.124Z,99686.56
2023-08-20T12:55:44.116Z,99685.68
2023-08-20T12:58:14.466Z,99687.25
2023-08-20T13:00:44.722Z,99684.42
2023-08-20T13:03:15.808Z,99682.81
2023-08-20T13:05:46.698Z,99681.75
2023-08-20T13:08:17.558Z,99677.60
2023-08-20T13:10:49.575Z,99671.55
2023-08-20T13:13:19.488Z,99672.58
2023-08-20T13:15:50.522Z,99667.91
2023-08-20T13:18:25.873Z,99669.32
2023-08-20T13:20:56.315Z,99665.36
2023-08-20T13:23:26.308Z,99662.55
2023-08-20T13:25:56.651Z,99653.33
2023-08-20T13:28:26.804Z,99653.66
2023-08-20T13:30:56.847Z,99652.80
2023-08-20T13:33:27.161Z,99649.94
2023-08-20T13:35:58.499Z,99651.77
2023-08-20T13:38:28.943Z,99646.59
2023-08-20T13:40:59.182Z,99641.40
2023-08-20T13:43:29.251Z,99637.60
2023-08-20T13:45:59.515Z,99640.45
2023-08-20T13:48:29.501Z,99639.41
2023-08-20T13:50:59.680Z,99637.54
2023-08-20T13:53:29.778Z,99630.10
2023-08-20T13:55:59.986Z,99630.33
2023-08-20T13:58:30.174Z,99626.96
2023-08-20T14:01:00.554Z,99623.81
2023-08-20T14:03:30.614Z,99627.23
2023-08-20T14:06:01.131Z,99628.66
2023-08-20T14:08:31.551Z,99625.99
2023-08-20T14:11:01.668Z,99621.23
2023-08-20T14:13:31.530Z,99620.25
2023-08-20T14:16:02.283Z,99622.19
2023-08-20T14:18:32.721Z,99620.95
2023-08-20T14:21:02.723Z,99614.98
2023-08-20T14:23:33.010Z,99614.32
2023-08-20T14:26:05.063Z,99609.77
2023-08-20T14:28:34.990Z,99609.83
2023-08-20T14:31:05.926Z,99607.95
2023-08-20T14:33:36.086Z,99608.45
2023-08-20T14:36:06.713Z,99607.52
2023-08-20T14:38:37.004Z,99606.33
2023-08-20T14:41:07.442Z,99602.91
2023-08-20T14:43:40.687Z,99604.32
2023-08-20T14:46:10.664Z,99601.86
2023-08-20T14:48:42.424Z,99601.34
2023-08-20T14:51:12.428Z,99598.82
2023-08-20T14:53:42.459Z,99596.30
2023-08-20T14:56:12.491Z,99595.54
2023-08-20T14:58:42.541Z,99599.15
2023-08-20T15:01:12.512Z,99598.52
2023-08-20T15:03:42.919Z,99593.88
2023-08-20T15:06:13.048Z,99590.98
2023-08-20T15:08:43.141Z,99592.98
2023-08-20T15:11:12.981Z,99594.04
2023-08-20T15:13:42.870Z,99597.06
2023-08-20T15:16:13.106Z,99599.89
2023-08-20T15:18:42.990Z,99595.29
2023-08-20T15:21:12.980Z,99594.71
2023-08-20T15:23:43.241Z,99597.95
2023-08-20T15:26:13.370Z,99598.73
2023-08-20T15:28:43.396Z,99593.06
2023-08-20T15:31:13.420Z,99595.95
2023-08-20T15:33:43.793Z,99594.67
2023-08-20T15:36:13.809Z,99595.80
2023-08-20T15:38:43.915Z,99597.66
2023-08-20T15:41:14.014Z,99599.79
2023-08-20T15:43:47.081Z,99603.08
2023-08-20T15:46:17.198Z,99600.80
2023-08-20T15:48:47.747Z,99604.20
2023-08-20T15:51:17.861Z,99601.90
2023-08-20T15:53:47.961Z,99605.27
2023-08-20T15:56:17.935Z,99611.16
2023-08-20T15:58:48.838Z,99612.83
2023-08-20T16:01:18.730Z,99608.75
2023-08-20T16:03:48.759Z,99606.98
2023-08-20T16:06:18.734Z,99607.99
2023-08-20T16:08:48.716Z,99607.43
2023-08-20T16:11:18.797Z,99610.86
2023-08-20T16:13:49.446Z,99608.10
2023-08-20T16:16:19.944Z,99611.85
2023-08-20T16:18:50.308Z,99608.22
2023-08-20T16:21:20.361Z,99612.52
2023-08-20T16:23:50.587Z,99609.59
2023-08-20T16:26:20.590Z,99611.17
2023-08-20T16:28:51.864Z,99607.67
2023-08-20T16:34:23.049Z,99605.70
2023-08-20T16:36:53.216Z,99604.04
2023-08-20T16:39:23.235Z,99603.33
2023-08-20T16:41:53.289Z,99600.74
2023-08-20T16:44:23.554Z,99601.56
2023-08-20T16:46:54.496Z,99600.80
2023-08-20T16:49:25.398Z,99604.64
2023-08-20T16:51:55.444Z,99605.29
2023-08-20T16:54:25.577Z,99603.60
2023-08-20T16:56:56.040Z,99606.10
2023-08-20T16:59:25.983Z,99604.38
2023-08-20T17:01:56.060Z,99607.21
2023-08-20T17:04:30.105Z,99607.66
2023-08-20T17:07:00.323Z,99607.76
2023-08-20T17:09:30.415Z,99610.71
2023-08-20T17:12:01.440Z,99610.23
2023-08-20T17:14:32.080Z,99610.14
2023-08-20T17:17:03.390Z,99611.10
2023-08-20T17:19:33.403Z,99613.23
2023-08-20T17:22:03.693Z,99614.89
2023-08-20T17:24:33.822Z,99619.75
2023-08-20T17:27:04.094Z,99618.90
2023-08-20T17:29:34.166Z,99619.88
2023-08-20T17:32:04.196Z,99620.05
2023-08-20T17:34:35.332Z,99622.17
2023-08-20T17:37:05.382Z,99624.94
2023-08-20T17:39:35.459Z,99628.44
2023-08-20T17:42:05.668Z,99629.83
2023-08-20T17:44:36.500Z,99632.58
2023-08-20T17:47:06.777Z,99633.21
2023-08-20T17:49:36.974Z,99640.17
2023-08-20T17:52:07.220Z,99641.69
2023-08-20T17:54:37.379Z,99645.67
2023-08-20T17:57:07.622Z,99647.28
2023-08-20T17:59:37.671Z,99651.57
2023-08-20T18:02:11.198Z,99654.73
2023-08-20T18:04:41.350Z,99654.70
2023-08-20T18:07:11.848Z,99658.64
2023-08-20T18:09:42.087Z,99659.23
2023-08-20T18:12:12.281Z,99663.27
2023-08-20T18:14:42.365Z,99658.69
2023-08-20T18:17:12.208Z,99663.06
2023-08-20T18:19:43.354Z,99660.23
2023-08-20T18:22:13.369Z,99661.27
2023-08-20T18:24:43.541Z,99659.02
2023-08-20T18:27:13.978Z,99655.30
2023-08-20T18:29:45.124Z,99652.83
2023-08-20T18:32:15.454Z,99649.32
2023-08-20T18:34:45.522Z,99650.34
2023-08-20T18:37:15.515Z,99655.16
2023-08-20T18:39:45.602Z,99656.69
2023-08-20T18:42:15.594Z,99658.54
2023-08-20T18:44:45.748Z,99666.20
2023-08-20T18:47:15.753Z,99670.35
2023-08-20T18:49:48.351Z,99671.15
2023-08-20T18:52:21.351Z,99673.85
2023-08-20T18:54:51.524Z,99675.91
2023-08-20T18:57:21.773Z,99675.21
2023-08-20T18:59:51.938Z,99673.11
2023-08-20T19:02:22.000Z,99667.08
2023-08-20T19:04:53.149Z,99673.08
2023-08-20T19:07:23.754Z,99673.83
2023-08-20T19:09:53.848Z,99676.08
2023-08-20T19:12:26.709Z,99681.35
2023-08-20T19:14:57.138Z,99682.09
2023-08-20T19:17:27.681Z,99677.70
2023-08-20T19:19:57.691Z,99679.76
2023-08-20T19:22:27.709Z,99678.45
2023-08-20T19:24:58.348Z,99679.73
2023-08-20T19:27:28.438Z,99681.48
2023-08-20T19:29:59.040Z,99683.78
2023-08-20T19:32:30.386Z,99681.55
2023-08-20T19:35:00.614Z,99678.54
2023-08-20T19:37:30.728Z,99679.30
2023-08-20T19:40:02.151Z,99675.41
2023-08-20T19:42:35.671Z,99677.59
2023-08-20T19:45:07.334Z,99677.40
2023-08-20T19:47:37.771Z,99680.91
2023-08-20T19:50:08.736Z,99677.21
2023-08-20T19:52:39.340Z,99675.38
2023-08-20T19:55:10.074Z,99677.29
2023-08-20T19:57:41.200Z,99676.39
2023-08-20T20:00:12.666Z,99672.96
2023-08-20T20:02:42.911Z,99673.66
2023-08-20T20:05:15.902Z,99674.38
2023-08-20T20:07:45.926Z,99677.20
2023-08-20T20:10:16.159Z,99678.25
2023-08-20T20:12:50.507Z,99681.64
2023-08-20T20:15:20.855Z,99683.59
2023-08-20T20:17:50.949Z,99676.83
2023-08-20T20:20:23.087Z,99679.66
2023-08-20T20:22:53.444Z,99677.63
2023-08-20T20:25:25.003Z,99674.42
2023-08-20T20:27:55.661Z,99676.44
2023-08-20T20:30:25.901Z,99679.17
2023-08-20T20:32:56.140Z,99673.77
2023-08-20T20:35:26.152Z,99675.05
2023-08-20T20:37:56.020Z,99677.52
2023-08-20T20:40:26.471Z,99674.11
2023-08-20T20:42:56.664Z,99682.10
2023-08-20T20:45:26.647Z,99684.79
2023-08-20T20:47:56.967Z,99684.63
2023-08-20T20:50:26.928Z,99683.50
2023-08-20T20:52:57.214Z,99683.52
2023-08-20T20:55:27.382Z,99687.61
2023-08-20T20:57:57.429Z,99686.52
2023-08-20T21:00:27.524Z,99684.46
2023-08-20T21:02:57.644Z,99686.04
2023-08-20T21:05:27.556Z,99684.51
2023-08-20T21:07:57.767Z,99679.50
2023-08-20T21:10:27.914Z,99678.57
2023-08-20T21:12:58.055Z,99678.46
2023-08-20T21:15:28.145Z,99674.55
2023-08-20T21:17:58.244Z,99675.90
2023-08-20T21:20:28.427Z,99674.59
2023-08-20T21:22:58.436Z,99674.30
2023-08-20T21:25:28.840Z,99680.18
2023-08-20T21:27:58.944Z,99682.63
2023-08-20T21:30:28.974Z,99681.15
2023-08-20T21:32:59.052Z,99683.79
2023-08-20T21:35:29.277Z,99687.07
2023-08-20T21:37:59.359Z,99686.02
2023-08-20T21:40:29.673Z,99686.02
2023-08-20T21:42:59.620Z,99684.52
2023-08-20T21:45:29.800Z,99682.94
2023-08-20T21:47:59.736Z,99683.59
2023-08-20T21:50:29.746Z,99684.08
2023-08-20T21:52:59.677Z,99687.54
2023-08-20T21:55:31.751Z,99686.15
2023-08-20T21:58:01.814Z,99688.33
2023-08-20T22:00:32.283Z,99690.38
2023-08-20T22:03:02.330Z,99690.13
2023-08-20T22:05:32.913Z,99695.17
2023-08-20T22:08:03.627Z,99690.48
2023-08-20T22:10:34.138Z,99695.95
2023-08-20T22:13:04.267Z,99698.23
2023-08-20T22:15:34.490Z,99692.98
2023-08-20T22:18:05.485Z,99686.05
2023-08-20T22:20:35.426Z,99689.23
2023-08-20T22:23:05.566Z,99690.37
2023-08-20T22:25:35.533Z,99689.21
2023-08-20T22:28:06.336Z,99681.54
2023-08-20T22:30:37.952Z,99684.42
2023-08-20T22:33:08.138Z,99682.77
2023-08-20T22:35:38.102Z,99680.77
2023-08-20T22:38:10.174Z,99678.51
2023-08-20T22:40:43.330Z,99680.30
2023-08-20T22:43:13.320Z,99680.84
2023-08-20T22:45:43.288Z,99679.16
2023-08-20T22:48:13.505Z,99678.11
2023-08-20T22:58:11.987Z,99676.80
2023-08-20T23:00:42.085Z,99677.71
2023-08-20T23:03:12.158Z,99671.75
2023-08-20T23:05:42.205Z,99670.95
2023-08-20T23:08:12.305Z,99670.70
2023-08-20T23:10:42.315Z,99674.98
2023-08-20T23:13:12.208Z,99672.35
2023-08-20T23:15:44.523Z,99672.94
2023-08-20T23:18:15.257Z,99671.48
2023-08-20T23:20:46.212Z,99668.43
2023-08-20T23:23:16.098Z,99665.42
2023-08-20T23:25:47.112Z,99666.06
2023-08-20T23:28:17.295Z,99666.64
2023-08-20T23:30:47.283Z,99668.43
2023-08-20T23:33:17.939Z,99668.23
2023-08-20T23:35:48.182Z,99667.41
2023-08-20T23:38:18.274Z,99667.04
2023-08-20T23:40:48.375Z,99664.46
2023-08-20T23:43:18.248Z,99661.05
2023-08-20T23:45:48.067Z,99658.92
2023-08-20T23:48:18.189Z,99659.46
2023-08-20T23:50:48.245Z,99658.85
2023-08-20T23:53:18.672Z,99661.71
2023-08-20T23:55:48.782Z,99655.73
2023-08-20T23:58:18.763Z,99657.55
